sensor_id;sensor_type;location;lat;lon;timestamp;P1;durP1;ratioP1;P2;durP2;ratioP2
26574;SDS011;67165;50.256;10.978;2023-02-03T00:01:42;34.83;;;20.38;;
26574;SDS011;67165;50.256;10.978;2023-02-03T00:04:08;28.17;;;17.80;;
26574;SDS011;67165;50.256;10.978;2023-02-03T00:06:34;28.60;;;17.75;;
26574;SDS011;67165;50.256;10.978;2023-02-03T00:09:00;31.80;;;18.42;;
26574;SDS011;67165;50.256;10.978;2023-02-03T00:11:28;35.88;;;18.88;;
26574;SDS011;67165;50.256;10.978;2023-02-03T00:13:54;30.30;;;18.15;;
26574;SDS011;67165;50.256;10.978;2023-02-03T00:16:20;30.98;;;18.42;;
26574;SDS011;67165;50.256;10.978;2023-02-03T00:18:45;29.90;;;17.08;;
26574;SDS011;67165;50.256;10.978;2023-02-03T00:21:11;33.30;;;15.98;;
26574;SDS011;67165;50.256;10.978;2023-02-03T00:23:40;25.35;;;14.05;;
26574;SDS011;67165;50.256;10.978;2023-02-03T00:26:10;26.20;;;14.80;;
26574;SDS011;67165;50.256;10.978;2023-02-03T00:28:41;28.02;;;14.90;;
26574;SDS011;67165;50.256;10.978;2023-02-03T00:31:17;25.45;;;15.13;;
26574;SDS011;67165;50.256;10.978;2023-02-03T00:33:44;23.48;;;14.10;;
26574;SDS011;67165;50.256;10.978;2023-02-03T00:36:10;30.55;;;14.82;;
26574;SDS011;67165;50.256;10.978;2023-02-03T00:38:36;28.83;;;14.77;;
26574;SDS011;67165;50.256;10.978;2023-02-03T00:41:01;25.02;;;14.75;;
26574;SDS011;67165;50.256;10.978;2023-02-03T00:43:27;25.45;;;13.80;;
26574;SDS011;67165;50.256;10.978;2023-02-03T00:45:53;24.27;;;12.80;;
26574;SDS011;67165;50.256;10.978;2023-02-03T00:48:19;25.85;;;13.50;;
26574;SDS011;67165;50.256;10.978;2023-02-03T00:50:45;20.05;;;12.02;;
26574;SDS011;67165;50.256;10.978;2023-02-03T00:53:11;25.70;;;13.02;;
26574;SDS011;67165;50.256;10.978;2023-02-03T00:55:37;25.52;;;12.48;;
26574;SDS011;67165;50.256;10.978;2023-02-03T00:58:03;23.50;;;12.73;;
26574;SDS011;67165;50.256;10.978;2023-02-03T01:00:28;22.55;;;12.52;;
26574;SDS011;67165;50.256;10.978;2023-02-03T01:02:54;23.83;;;12.38;;
26574;SDS011;67165;50.256;10.978;2023-02-03T01:05:19;25.88;;;13.80;;
26574;SDS011;67165;50.256;10.978;2023-02-03T01:07:45;28.08;;;12.68;;
26574;SDS011;67165;50.256;10.978;2023-02-03T01:10:11;26.25;;;12.82;;
26574;SDS011;67165;50.256;10.978;2023-02-03T01:12:38;20.73;;;11.48;;
26574;SDS011;67165;50.256;10.978;2023-02-03T01:15:04;24.38;;;12.57;;
26574;SDS011;67165;50.256;10.978;2023-02-03T01:17:30;27.35;;;12.60;;
26574;SDS011;67165;50.256;10.978;2023-02-03T01:19:55;23.85;;;13.38;;
26574;SDS011;67165;50.256;10.978;2023-02-03T01:22:21;24.70;;;13.23;;
26574;SDS011;67165;50.256;10.978;2023-02-03T01:24:47;22.40;;;12.65;;
26574;SDS011;67165;50.256;10.978;2023-02-03T01:27:12;24.40;;;12.48;;
26574;SDS011;67165;50.256;10.978;2023-02-03T01:29:38;23.88;;;12.98;;
26574;SDS011;67165;50.256;10.978;2023-02-03T01:32:03;19.42;;;12.20;;
26574;SDS011;67165;50.256;10.978;2023-02-03T01:34:29;28.83;;;13.63;;
26574;SDS011;67165;50.256;10.978;2023-02-03T01:36:55;24.02;;;13.85;;
26574;SDS011;67165;50.256;10.978;2023-02-03T01:39:20;23.38;;;13.82;;
26574;SDS011;67165;50.256;10.978;2023-02-03T01:41:46;22.95;;;13.60;;
26574;SDS011;67165;50.256;10.978;2023-02-03T01:47:03;22.73;;;13.90;;
26574;SDS011;67165;50.256;10.978;2023-02-03T01:49:48;28.58;;;14.50;;
26574;SDS011;67165;50.256;10.978;2023-02-03T01:52:51;21.52;;;14.02;;
26574;SDS011;67165;50.256;10.978;2023-02-03T01:55:21;29.30;;;13.98;;
26574;SDS011;67165;50.256;10.978;2023-02-03T01:57:57;23.90;;;13.55;;
26574;SDS011;67165;50.256;10.978;2023-02-03T02:00:28;23.33;;;13.73;;
26574;SDS011;67165;50.256;10.978;2023-02-03T02:02:54;23.55;;;13.75;;
26574;SDS011;67165;50.256;10.978;2023-02-03T02:08:14;29.00;;;14.70;;
26574;SDS011;67165;50.256;10.978;2023-02-03T02:10:42;25.98;;;14.52;;
26574;SDS011;67165;50.256;10.978;2023-02-03T02:13:08;30.10;;;14.75;;
26574;SDS011;67165;50.256;10.978;2023-02-03T02:18:23;30.23;;;13.90;;
26574;SDS011;67165;50.256;10.978;2023-02-03T02:21:05;28.77;;;13.98;;
26574;SDS011;67165;50.256;10.978;2023-02-03T02:24:07;25.90;;;14.40;;
26574;SDS011;67165;50.256;10.978;2023-02-03T02:29:40;29.33;;;14.40;;
26574;SDS011;67165;50.256;10.978;2023-02-03T02:32:21;24.35;;;14.80;;
26574;SDS011;67165;50.256;10.978;2023-02-03T02:41:05;27.10;;;13.48;;
26574;SDS011;67165;50.256;10.978;2023-02-03T02:46:25;22.90;;;14.20;;
26574;SDS011;67165;50.256;10.978;2023-02-03T02:51:42;26.33;;;13.82;;
26574;SDS011;67165;50.256;10.978;2023-02-03T02:54:11;24.15;;;13.32;;
26574;SDS011;67165;50.256;10.978;2023-02-03T02:56:44;25.52;;;12.35;;
26574;SDS011;67165;50.256;10.978;2023-02-03T02:59:13;25.92;;;12.90;;
26574;SDS011;67165;50.256;10.978;2023-02-03T03:01:39;25.67;;;12.35;;
26574;SDS011;67165;50.256;10.978;2023-02-03T03:04:05;23.70;;;13.00;;
26574;SDS011;67165;50.256;10.978;2023-02-03T03:06:43;22.98;;;12.35;;
26574;SDS011;67165;50.256;10.978;2023-02-03T03:09:11;22.92;;;12.18;;
26574;SDS011;67165;50.256;10.978;2023-02-03T03:11:44;16.85;;;11.63;;
26574;SDS011;67165;50.256;10.978;2023-02-03T03:14:14;20.70;;;10.80;;
26574;SDS011;67165;50.256;10.978;2023-02-03T03:16:45;23.55;;;10.60;;
26574;SDS011;67165;50.256;10.978;2023-02-03T03:19:18;20.42;;;10.27;;
26574;SDS011;67165;50.256;10.978;2023-02-03T03:21:51;17.13;;;9.43;;
26574;SDS011;67165;50.256;10.978;2023-02-03T03:24:27;16.77;;;9.77;;
26574;SDS011;67165;50.256;10.978;2023-02-03T03:29:30;16.50;;;9.57;;
26574;SDS011;67165;50.256;10.978;2023-02-03T03:32:01;13.70;;;8.77;;
26574;SDS011;67165;50.256;10.978;2023-02-03T03:34:27;13.98;;;9.32;;
26574;SDS011;67165;50.256;10.978;2023-02-03T03:36:57;16.92;;;9.70;;
26574;SDS011;67165;50.256;10.978;2023-02-03T03:45:24;15.35;;;9.05;;
26574;SDS011;67165;50.256;10.978;2023-02-03T03:50:24;19.13;;;9.57;;
26574;SDS011;67165;50.256;10.978;2023-02-03T03:52:56;17.83;;;10.25;;
26574;SDS011;67165;50.256;10.978;2023-02-03T03:55:25;15.88;;;10.18;;
26574;SDS011;67165;50.256;10.978;2023-02-03T03:57:54;16.45;;;10.60;;
26574;SDS011;67165;50.256;10.978;2023-02-03T04:00:27;21.77;;;11.00;;
26574;SDS011;67165;50.256;10.978;2023-02-03T04:02:55;18.73;;;10.05;;
26574;SDS011;67165;50.256;10.978;2023-02-03T04:05:24;24.25;;;11.30;;
26574;SDS011;67165;50.256;10.978;2023-02-03T04:07:51;21.23;;;10.75;;
26574;SDS011;67165;50.256;10.978;2023-02-03T04:10:20;18.27;;;11.05;;
26574;SDS011;67165;50.256;10.978;2023-02-03T04:12:53;21.35;;;10.88;;
26574;SDS011;67165;50.256;10.978;2023-02-03T04:15:19;18.48;;;10.68;;
26574;SDS011;67165;50.256;10.978;2023-02-03T04:17:44;22.20;;;11.55;;
26574;SDS011;67165;50.256;10.978;2023-02-03T04:20:10;21.23;;;11.95;;
26574;SDS011;67165;50.256;10.978;2023-02-03T04:22:36;17.45;;;11.43;;
26574;SDS011;67165;50.256;10.978;2023-02-03T04:25:02;17.38;;;11.02;;
26574;SDS011;67165;50.256;10.978;2023-02-03T04:27:27;21.13;;;10.65;;
26574;SDS011;67165;50.256;10.978;2023-02-03T04:29:53;16.38;;;10.05;;
26574;SDS011;67165;50.256;10.978;2023-02-03T04:32:19;16.58;;;9.52;;
26574;SDS011;67165;50.256;10.978;2023-02-03T04:34:45;16.70;;;9.55;;
26574;SDS011;67165;50.256;10.978;2023-02-03T04:37:10;14.85;;;8.80;;
26574;SDS011;67165;50.256;10.978;2023-02-03T04:39:36;16.40;;;8.90;;
26574;SDS011;67165;50.256;10.978;2023-02-03T04:42:02;15.02;;;9.30;;
26574;SDS011;67165;50.256;10.978;2023-02-03T04:44:27;15.93;;;8.73;;
26574;SDS011;67165;50.256;10.978;2023-02-03T04:46:53;12.90;;;8.68;;
26574;SDS011;67165;50.256;10.978;2023-02-03T04:49:19;14.10;;;8.05;;
26574;SDS011;67165;50.256;10.978;2023-02-03T04:51:47;14.73;;;7.85;;
26574;SDS011;67165;50.256;10.978;2023-02-03T04:54:13;12.80;;;7.93;;
26574;SDS011;67165;50.256;10.978;2023-02-03T04:56:39;14.30;;;8.07;;
26574;SDS011;67165;50.256;10.978;2023-02-03T04:59:04;12.48;;;7.25;;
26574;SDS011;67165;50.256;10.978;2023-02-03T05:01:30;11.63;;;7.75;;
26574;SDS011;67165;50.256;10.978;2023-02-03T05:03:56;11.73;;;8.13;;
26574;SDS011;67165;50.256;10.978;2023-02-03T05:06:25;12.95;;;8.13;;
26574;SDS011;67165;50.256;10.978;2023-02-03T05:08:57;12.88;;;7.80;;
26574;SDS011;67165;50.256;10.978;2023-02-03T05:11:22;13.90;;;7.50;;
26574;SDS011;67165;50.256;10.978;2023-02-03T05:13:48;11.60;;;7.55;;
26574;SDS011;67165;50.256;10.978;2023-02-03T05:16:14;11.90;;;7.03;;
26574;SDS011;67165;50.256;10.978;2023-02-03T05:18:39;12.45;;;7.50;;
26574;SDS011;67165;50.256;10.978;2023-02-03T05:21:05;9.38;;;6.88;;
26574;SDS011;67165;50.256;10.978;2023-02-03T05:23:31;11.10;;;7.68;;
26574;SDS011;67165;50.256;10.978;2023-02-03T05:25:57;10.63;;;7.10;;
26574;SDS011;67165;50.256;10.978;2023-02-03T05:28:23;13.00;;;6.93;;
26574;SDS011;67165;50.256;10.978;2023-02-03T05:30:48;13.60;;;7.00;;
26574;SDS011;67165;50.256;10.978;2023-02-03T05:33:14;11.98;;;7.18;;
26574;SDS011;67165;50.256;10.978;2023-02-03T05:35:40;11.90;;;6.70;;
26574;SDS011;67165;50.256;10.978;2023-02-03T05:38:05;11.20;;;7.03;;
26574;SDS011;67165;50.256;10.978;2023-02-03T05:40:31;8.00;;;5.75;;
26574;SDS011;67165;50.256;10.978;2023-02-03T05:43:15;12.23;;;6.20;;
26574;SDS011;67165;50.256;10.978;2023-02-03T05:45:41;12.18;;;5.60;;
26574;SDS011;67165;50.256;10.978;2023-02-03T05:48:07;14.07;;;6.45;;
26574;SDS011;67165;50.256;10.978;2023-02-03T05:50:33;8.98;;;5.85;;
26574;SDS011;67165;50.256;10.978;2023-02-03T05:52:59;12.20;;;6.72;;
26574;SDS011;67165;50.256;10.978;2023-02-03T05:55:27;8.68;;;5.82;;
26574;SDS011;67165;50.256;10.978;2023-02-03T05:57:53;8.27;;;5.15;;
26574;SDS011;67165;50.256;10.978;2023-02-03T06:00:19;11.10;;;5.60;;
26574;SDS011;67165;50.256;10.978;2023-02-03T06:02:56;9.00;;;5.50;;
26574;SDS011;67165;50.256;10.978;2023-02-03T06:05:24;9.13;;;5.93;;
26574;SDS011;67165;50.256;10.978;2023-02-03T06:07:51;9.93;;;5.50;;
26574;SDS011;67165;50.256;10.978;2023-02-03T06:10:16;10.45;;;5.85;;
26574;SDS011;67165;50.256;10.978;2023-02-03T06:12:45;9.73;;;5.30;;
26574;SDS011;67165;50.256;10.978;2023-02-03T06:15:11;9.77;;;5.63;;
26574;SDS011;67165;50.256;10.978;2023-02-03T06:17:37;8.35;;;5.57;;
26574;SDS011;67165;50.256;10.978;2023-02-03T06:20:03;7.82;;;5.47;;
26574;SDS011;67165;50.256;10.978;2023-02-03T06:22:30;10.85;;;5.93;;
26574;SDS011;67165;50.256;10.978;2023-02-03T06:24:56;11.05;;;6.65;;
26574;SDS011;67165;50.256;10.978;2023-02-03T06:27:22;16.52;;;6.38;;
26574;SDS011;67165;50.256;10.978;2023-02-03T06:29:47;9.07;;;6.35;;
26574;SDS011;67165;50.256;10.978;2023-02-03T06:32:13;8.43;;;6.38;;
26574;SDS011;67165;50.256;10.978;2023-02-03T06:34:39;9.50;;;6.38;;
26574;SDS011;67165;50.256;10.978;2023-02-03T06:37:04;9.55;;;5.97;;
26574;SDS011;67165;50.256;10.978;2023-02-03T06:39:30;12.95;;;6.10;;
26574;SDS011;67165;50.256;10.978;2023-02-03T06:41:55;8.48;;;6.40;;
26574;SDS011;67165;50.256;10.978;2023-02-03T06:44:21;10.60;;;6.20;;
26574;SDS011;67165;50.256;10.978;2023-02-03T06:46:47;10.43;;;6.20;;
26574;SDS011;67165;50.256;10.978;2023-02-03T06:49:14;9.27;;;5.57;;
26574;SDS011;67165;50.256;10.978;2023-02-03T06:51:41;8.98;;;5.60;;
26574;SDS011;67165;50.256;10.978;2023-02-03T06:54:09;10.43;;;6.18;;
26574;SDS011;67165;50.256;10.978;2023-02-03T06:56:35;9.63;;;5.97;;
26574;SDS011;67165;50.256;10.978;2023-02-03T06:59:00;8.90;;;4.95;;
26574;SDS011;67165;50.256;10.978;2023-02-03T07:01:26;7.82;;;5.00;;
26574;SDS011;67165;50.256;10.978;2023-02-03T07:03:53;8.80;;;5.40;;
26574;SDS011;67165;50.256;10.978;2023-02-03T07:06:22;10.05;;;5.70;;
26574;SDS011;67165;50.256;10.978;2023-02-03T07:08:48;7.50;;;5.53;;
26574;SDS011;67165;50.256;10.978;2023-02-03T07:11:13;9.63;;;5.22;;
26574;SDS011;67165;50.256;10.978;2023-02-03T07:13:39;8.80;;;5.15;;
26574;SDS011;67165;50.256;10.978;2023-02-03T07:16:05;10.75;;;5.82;;
26574;SDS011;67165;50.256;10.978;2023-02-03T07:18:31;7.80;;;5.03;;
26574;SDS011;67165;50.256;10.978;2023-02-03T07:20:56;7.65;;;5.53;;
26574;SDS011;67165;50.256;10.978;2023-02-03T07:23:22;10.40;;;5.50;;
26574;SDS011;67165;50.256;10.978;2023-02-03T07:25:48;8.23;;;5.22;;
26574;SDS011;67165;50.256;10.978;2023-02-03T07:28:13;10.48;;;5.88;;
26574;SDS011;67165;50.256;10.978;2023-02-03T07:30:39;9.90;;;5.75;;
26574;SDS011;67165;50.256;10.978;2023-02-03T07:33:04;7.85;;;5.80;;
26574;SDS011;67165;50.256;10.978;2023-02-03T07:35:32;8.88;;;5.68;;
26574;SDS011;67165;50.256;10.978;2023-02-03T07:37:58;12.25;;;6.03;;
26574;SDS011;67165;50.256;10.978;2023-02-03T07:40:24;9.70;;;5.60;;
26574;SDS011;67165;50.256;10.978;2023-02-03T07:42:50;9.90;;;5.53;;
26574;SDS011;67165;50.256;10.978;2023-02-03T07:45:16;8.48;;;5.30;;
26574;SDS011;67165;50.256;10.978;2023-02-03T07:47:42;7.80;;;5.45;;
26574;SDS011;67165;50.256;10.978;2023-02-03T07:50:08;8.63;;;5.50;;
26574;SDS011;67165;50.256;10.978;2023-02-03T07:52:36;11.75;;;5.60;;
26574;SDS011;67165;50.256;10.978;2023-02-03T07:55:02;6.85;;;5.35;;
26574;SDS011;67165;50.256;10.978;2023-02-03T07:57:28;9.07;;;5.53;;
26574;SDS011;67165;50.256;10.978;2023-02-03T07:59:53;11.65;;;5.00;;
26574;SDS011;67165;50.256;10.978;2023-02-03T08:02:19;6.30;;;4.78;;
26574;SDS011;67165;50.256;10.978;2023-02-03T08:04:45;7.53;;;5.18;;
26574;SDS011;67165;50.256;10.978;2023-02-03T08:07:13;8.35;;;5.20;;
26574;SDS011;67165;50.256;10.978;2023-02-03T08:09:39;6.90;;;5.20;;
26574;SDS011;67165;50.256;10.978;2023-02-03T08:12:04;7.38;;;4.80;;
26574;SDS011;67165;50.256;10.978;2023-02-03T08:14:30;7.90;;;4.63;;
26574;SDS011;67165;50.256;10.978;2023-02-03T08:16:56;6.30;;;4.68;;
26574;SDS011;67165;50.256;10.978;2023-02-03T08:19:22;7.57;;;4.72;;
26574;SDS011;67165;50.256;10.978;2023-02-03T08:21:47;5.88;;;4.32;;
26574;SDS011;67165;50.256;10.978;2023-02-03T08:24:13;5.25;;;3.83;;
26574;SDS011;67165;50.256;10.978;2023-02-03T08:26:38;5.88;;;4.35;;
26574;SDS011;67165;50.256;10.978;2023-02-03T08:29:12;6.67;;;4.20;;
26574;SDS011;67165;50.256;10.978;2023-02-03T08:31:40;10.27;;;4.80;;
26574;SDS011;67165;50.256;10.978;2023-02-03T08:34:06;8.65;;;4.55;;
26574;SDS011;67165;50.256;10.978;2023-02-03T08:36:31;6.13;;;4.32;;
26574;SDS011;67165;50.256;10.978;2023-02-03T08:38:57;9.88;;;4.80;;
26574;SDS011;67165;50.256;10.978;2023-02-03T08:41:23;7.65;;;4.57;;
26574;SDS011;67165;50.256;10.978;2023-02-03T08:43:48;8.25;;;4.30;;
26574;SDS011;67165;50.256;10.978;2023-02-03T08:46:14;7.07;;;4.40;;
26574;SDS011;67165;50.256;10.978;2023-02-03T08:48:40;9.27;;;4.45;;
26574;SDS011;67165;50.256;10.978;2023-02-03T08:51:13;8.07;;;4.30;;
26574;SDS011;67165;50.256;10.978;2023-02-03T08:53:40;8.80;;;4.55;;
26574;SDS011;67165;50.256;10.978;2023-02-03T08:56:06;7.38;;;4.07;;
26574;SDS011;67165;50.256;10.978;2023-02-03T08:58:33;7.13;;;4.72;;
26574;SDS011;67165;50.256;10.978;2023-02-03T09:01:09;7.78;;;4.40;;
26574;SDS011;67165;50.256;10.978;2023-02-03T09:03:36;10.00;;;5.32;;
26574;SDS011;67165;50.256;10.978;2023-02-03T09:06:02;6.43;;;3.92;;
26574;SDS011;67165;50.256;10.978;2023-02-03T09:08:29;7.35;;;4.20;;
26574;SDS011;67165;50.256;10.978;2023-02-03T09:10:55;6.30;;;4.25;;
26574;SDS011;67165;50.256;10.978;2023-02-03T09:13:20;10.15;;;4.78;;
26574;SDS011;67165;50.256;10.978;2023-02-03T09:15:46;6.15;;;4.47;;
26574;SDS011;67165;50.256;10.978;2023-02-03T09:18:12;8.52;;;4.82;;
26574;SDS011;67165;50.256;10.978;2023-02-03T09:20:37;9.50;;;4.93;;
26574;SDS011;67165;50.256;10.978;2023-02-03T09:23:03;10.45;;;4.57;;
26574;SDS011;67165;50.256;10.978;2023-02-03T09:25:29;8.95;;;4.25;;
26574;SDS011;67165;50.256;10.978;2023-02-03T09:27:55;8.80;;;4.47;;
26574;SDS011;67165;50.256;10.978;2023-02-03T09:30:20;8.35;;;4.00;;
26574;SDS011;67165;50.256;10.978;2023-02-03T09:32:46;5.90;;;4.30;;
26574;SDS011;67165;50.256;10.978;2023-02-03T09:35:18;8.70;;;4.38;;
26574;SDS011;67165;50.256;10.978;2023-02-03T09:37:44;5.50;;;4.07;;
26574;SDS011;67165;50.256;10.978;2023-02-03T09:40:12;9.13;;;4.35;;
26574;SDS011;67165;50.256;10.978;2023-02-03T09:42:54;8.45;;;4.30;;
26574;SDS011;67165;50.256;10.978;2023-02-03T09:45:27;7.60;;;4.05;;
26574;SDS011;67165;50.256;10.978;2023-02-03T09:47:56;9.07;;;4.00;;
26574;SDS011;67165;50.256;10.978;2023-02-03T09:50:28;10.45;;;4.53;;
26574;SDS011;67165;50.256;10.978;2023-02-03T09:52:56;9.35;;;4.30;;
26574;SDS011;67165;50.256;10.978;2023-02-03T09:55:27;6.88;;;4.55;;
26574;SDS011;67165;50.256;10.978;2023-02-03T10:00:35;7.78;;;4.50;;
26574;SDS011;67165;50.256;10.978;2023-02-03T10:09:14;8.30;;;3.92;;
26574;SDS011;67165;50.256;10.978;2023-02-03T10:22:44;6.93;;;4.30;;
26574;SDS011;67165;50.256;10.978;2023-02-03T10:25:20;6.68;;;4.10;;
26574;SDS011;67165;50.256;10.978;2023-02-03T10:27:56;9.35;;;4.00;;
26574;SDS011;67165;50.256;10.978;2023-02-03T10:30:28;7.78;;;4.10;;
26574;SDS011;67165;50.256;10.978;2023-02-03T10:33:08;6.18;;;3.75;;
26574;SDS011;67165;50.256;10.978;2023-02-03T10:35:45;7.05;;;3.20;;
26574;SDS011;67165;50.256;10.978;2023-02-03T10:38:20;8.18;;;3.60;;
26574;SDS011;67165;50.256;10.978;2023-02-03T10:40:58;8.55;;;3.47;;
26574;SDS011;67165;50.256;10.978;2023-02-03T10:43:23;7.40;;;3.05;;
26574;SDS011;67165;50.256;10.978;2023-02-03T10:46:08;8.27;;;3.30;;
26574;SDS011;67165;50.256;10.978;2023-02-03T10:48:34;7.93;;;3.38;;
26574;SDS011;67165;50.256;10.978;2023-02-03T10:51:00;4.88;;;2.95;;
26574;SDS011;67165;50.256;10.978;2023-02-03T10:53:33;7.28;;;2.88;;
26574;SDS011;67165;50.256;10.978;2023-02-03T10:56:08;6.40;;;3.90;;
26574;SDS011;67165;50.256;10.978;2023-02-03T10:58:36;12.38;;;4.47;;
26574;SDS011;67165;50.256;10.978;2023-02-03T11:01:04;6.05;;;3.47;;
26574;SDS011;67165;50.256;10.978;2023-02-03T11:03:33;7.75;;;3.45;;
26574;SDS011;67165;50.256;10.978;2023-02-03T11:06:12;7.68;;;3.20;;
26574;SDS011;67165;50.256;10.978;2023-02-03T11:08:41;9.80;;;3.63;;
26574;SDS011;67165;50.256;10.978;2023-02-03T11:11:12;9.93;;;3.30;;
26574;SDS011;67165;50.256;10.978;2023-02-03T11:13:45;11.30;;;3.63;;
26574;SDS011;67165;50.256;10.978;2023-02-03T11:16:16;8.82;;;3.67;;
26574;SDS011;67165;50.256;10.978;2023-02-03T11:19:01;11.68;;;6.88;;
26574;SDS011;67165;50.256;10.978;2023-02-03T11:26:33;7.60;;;4.25;;
26574;SDS011;67165;50.256;10.978;2023-02-03T11:29:02;7.25;;;3.83;;
26574;SDS011;67165;50.256;10.978;2023-02-03T11:31:30;13.20;;;5.60;;
26574;SDS011;67165;50.256;10.978;2023-02-03T11:34:02;6.82;;;3.78;;
26574;SDS011;67165;50.256;10.978;2023-02-03T11:36:39;8.07;;;3.40;;
26574;SDS011;67165;50.256;10.978;2023-02-03T11:39:38;4.88;;;2.75;;
26574;SDS011;67165;50.256;10.978;2023-02-03T11:44:26;7.22;;;2.30;;
26574;SDS011;67165;50.256;10.978;2023-02-03T11:47:02;7.97;;;2.90;;
26574;SDS011;67165;50.256;10.978;2023-02-03T11:49:45;6.93;;;2.65;;
26574;SDS011;67165;50.256;10.978;2023-02-03T11:57:51;10.50;;;3.40;;
26574;SDS011;67165;50.256;10.978;2023-02-03T12:14:10;6.88;;;2.30;;
26574;SDS011;67165;50.256;10.978;2023-02-03T12:17:04;8.65;;;2.70;;
26574;SDS011;67165;50.256;10.978;2023-02-03T12:19:59;5.70;;;2.80;;
26574;SDS011;67165;50.256;10.978;2023-02-03T12:22:33;7.13;;;3.97;;
26574;SDS011;67165;50.256;10.978;2023-02-03T12:30:42;28.98;;;19.40;;
26574;SDS011;67165;50.256;10.978;2023-02-03T12:33:18;10.20;;;5.10;;
26574;SDS011;67165;50.256;10.978;2023-02-03T12:35:53;9.35;;;3.72;;
26574;SDS011;67165;50.256;10.978;2023-02-03T12:38:33;19.98;;;12.90;;
26574;SDS011;67165;50.256;10.978;2023-02-03T12:41:06;16.50;;;9.38;;
26574;SDS011;67165;50.256;10.978;2023-02-03T12:43:38;7.38;;;3.70;;
26574;SDS011;67165;50.256;10.978;2023-02-03T12:51:26;9.57;;;6.15;;
26574;SDS011;67165;50.256;10.978;2023-02-03T12:54:00;5.28;;;3.15;;
26574;SDS011;67165;50.256;10.978;2023-02-03T12:56:46;7.35;;;2.50;;
26574;SDS011;67165;50.256;10.978;2023-02-03T12:59:21;6.22;;;2.60;;
26574;SDS011;67165;50.256;10.978;2023-02-03T13:01:54;4.82;;;2.33;;
26574;SDS011;67165;50.256;10.978;2023-02-03T13:07:18;5.72;;;3.15;;
26574;SDS011;67165;50.256;10.978;2023-02-03T13:12:34;4.93;;;2.15;;
26574;SDS011;67165;50.256;10.978;2023-02-03T13:15:09;4.90;;;2.80;;
26574;SDS011;67165;50.256;10.978;2023-02-03T13:17:51;5.50;;;3.00;;
26574;SDS011;67165;50.256;10.978;2023-02-03T13:20:20;5.50;;;2.47;;
26574;SDS011;67165;50.256;10.978;2023-02-03T13:22:48;26.80;;;12.18;;
26574;SDS011;67165;50.256;10.978;2023-02-03T13:30:57;23.25;;;10.02;;
26574;SDS011;67165;50.256;10.978;2023-02-03T13:39:25;24.08;;;12.27;;
26574;SDS011;67165;50.256;10.978;2023-02-03T13:44:43;3.00;;;2.15;;
26574;SDS011;67165;50.256;10.978;2023-02-03T13:47:19;2.58;;;2.00;;
26574;SDS011;67165;50.256;10.978;2023-02-03T13:50:03;3.45;;;2.50;;
26574;SDS011;67165;50.256;10.978;2023-02-03T13:52:44;3.90;;;2.00;;
26574;SDS011;67165;50.256;10.978;2023-02-03T13:57:54;4.35;;;1.95;;
26574;SDS011;67165;50.256;10.978;2023-02-03T14:03:39;2.97;;;1.55;;
26574;SDS011;67165;50.256;10.978;2023-02-03T14:09:20;4.03;;;1.90;;
26574;SDS011;67165;50.256;10.978;2023-02-03T14:11:48;2.00;;;1.60;;
26574;SDS011;67165;50.256;10.978;2023-02-03T14:19:10;1.70;;;1.40;;
26574;SDS011;67165;50.256;10.978;2023-02-03T14:22:18;2.90;;;1.50;;
26574;SDS011;67165;50.256;10.978;2023-02-03T14:24:42;2.45;;;2.05;;
26574;SDS011;67165;50.256;10.978;2023-02-03T14:27:20;1.98;;;1.60;;
26574;SDS011;67165;50.256;10.978;2023-02-03T14:30:05;2.88;;;2.20;;
26574;SDS011;67165;50.256;10.978;2023-02-03T14:35:22;2.40;;;2.20;;
26574;SDS011;67165;50.256;10.978;2023-02-03T14:38:04;2.13;;;1.55;;
26574;SDS011;67165;50.256;10.978;2023-02-03T14:40:33;2.53;;;1.67;;
26574;SDS011;67165;50.256;10.978;2023-02-03T14:43:04;2.67;;;1.83;;
26574;SDS011;67165;50.256;10.978;2023-02-03T15:03:27;4.57;;;3.65;;
26574;SDS011;67165;50.256;10.978;2023-02-03T15:05:43;7.10;;;4.32;;
26574;SDS011;67165;50.256;10.978;2023-02-03T15:13:50;3.08;;;2.28;;
26574;SDS011;67165;50.256;10.978;2023-02-03T15:16:21;3.60;;;2.08;;
26574;SDS011;67165;50.256;10.978;2023-02-03T15:18:55;2.25;;;2.03;;
26574;SDS011;67165;50.256;10.978;2023-02-03T15:21:23;3.75;;;1.90;;
26574;SDS011;67165;50.256;10.978;2023-02-03T15:23:49;3.83;;;1.83;;
26574;SDS011;67165;50.256;10.978;2023-02-03T15:26:25;3.55;;;1.90;;
26574;SDS011;67165;50.256;10.978;2023-02-03T15:29:00;2.47;;;1.70;;
26574;SDS011;67165;50.256;10.978;2023-02-03T15:31:41;2.38;;;1.80;;
26574;SDS011;67165;50.256;10.978;2023-02-03T15:34:29;1.80;;;1.70;;
26574;SDS011;67165;50.256;10.978;2023-02-03T15:37:00;2.45;;;1.90;;
26574;SDS011;67165;50.256;10.978;2023-02-03T15:42:56;2.05;;;1.70;;
26574;SDS011;67165;50.256;10.978;2023-02-03T15:45:32;2.25;;;1.80;;
26574;SDS011;67165;50.256;10.978;2023-02-03T15:48:18;2.65;;;2.03;;
26574;SDS011;67165;50.256;10.978;2023-02-03T15:50:52;4.47;;;2.10;;
26574;SDS011;67165;50.256;10.978;2023-02-03T15:53:34;4.65;;;2.20;;
26574;SDS011;67165;50.256;10.978;2023-02-03T15:56:11;6.15;;;2.33;;
26574;SDS011;67165;50.256;10.978;2023-02-03T15:58:44;4.03;;;2.30;;
26574;SDS011;67165;50.256;10.978;2023-02-03T16:01:11;3.25;;;2.05;;
26574;SDS011;67165;50.256;10.978;2023-02-03T16:03:40;2.60;;;2.20;;
26574;SDS011;67165;50.256;10.978;2023-02-03T16:06:15;4.30;;;2.67;;
26574;SDS011;67165;50.256;10.978;2023-02-03T16:08:45;4.53;;;2.17;;
26574;SDS011;67165;50.256;10.978;2023-02-03T16:14:02;3.53;;;2.35;;
26574;SDS011;67165;50.256;10.978;2023-02-03T16:19:05;12.63;;;8.27;;
26574;SDS011;67165;50.256;10.978;2023-02-03T16:35:51;3.15;;;2.45;;
26574;SDS011;67165;50.256;10.978;2023-02-03T16:38:35;4.60;;;2.22;;
26574;SDS011;67165;50.256;10.978;2023-02-03T16:41:20;6.15;;;2.47;;
26574;SDS011;67165;50.256;10.978;2023-02-03T16:44:04;4.50;;;2.28;;
26574;SDS011;67165;50.256;10.978;2023-02-03T16:46:48;5.93;;;2.20;;
26574;SDS011;67165;50.256;10.978;2023-02-03T16:49:32;8.30;;;2.20;;
26574;SDS011;67165;50.256;10.978;2023-02-03T16:54:42;9.35;;;2.58;;
26574;SDS011;67165;50.256;10.978;2023-02-03T16:57:08;9.18;;;2.20;;
26574;SDS011;67165;50.256;10.978;2023-02-03T16:59:33;9.15;;;2.50;;
26574;SDS011;67165;50.256;10.978;2023-02-03T17:01:59;7.90;;;2.60;;
26574;SDS011;67165;50.256;10.978;2023-02-03T17:04:25;11.55;;;2.65;;
26574;SDS011;67165;50.256;10.978;2023-02-03T17:06:50;18.50;;;5.68;;
26574;SDS011;67165;50.256;10.978;2023-02-03T17:09:16;12.50;;;4.07;;
26574;SDS011;67165;50.256;10.978;2023-02-03T17:11:47;13.45;;;4.00;;
26574;SDS011;67165;50.256;10.978;2023-02-03T17:14:13;18.38;;;5.57;;
26574;SDS011;67165;50.256;10.978;2023-02-03T17:16:39;11.93;;;3.45;;
26574;SDS011;67165;50.256;10.978;2023-02-03T17:19:05;14.00;;;3.10;;
26574;SDS011;67165;50.256;10.978;2023-02-03T17:21:34;13.90;;;3.35;;
26574;SDS011;67165;50.256;10.978;2023-02-03T17:24:00;21.75;;;5.63;;
26574;SDS011;67165;50.256;10.978;2023-02-03T17:26:26;17.08;;;5.07;;
26574;SDS011;67165;50.256;10.978;2023-02-03T17:28:52;20.70;;;3.70;;
26574;SDS011;67165;50.256;10.978;2023-02-03T17:31:18;15.43;;;3.45;;
26574;SDS011;67165;50.256;10.978;2023-02-03T17:33:45;11.95;;;3.50;;
26574;SDS011;67165;50.256;10.978;2023-02-03T17:36:15;18.42;;;3.53;;